Time;durP1;ratioP1;P1;durP2;ratioP2;P2;SDS_P1;SDS_P2;PMS_P1;PMS_P2;Temp;Humidity;BMP_temperature;BMP_pressure;BME280_temperature;BME280_humidity;BME280_pressure;Samples;Min_cycle;Max_cycle;Signal;HPM_P1;HPM_P2
2022/02/05 00:00:31;;;;;;;1.00;1.00;;;;;;;6.05;65.03;100303.84;680264;28;137862;-69
2022/02/05 00:00:53;;;;;;;0.80;0.80;;;;;;;6.07;65.06;100315.28;684702;28;137451;-69
2022/02/05 00:01:20;;;;;;;0.90;0.90;;;;;;;6.03;65.11;100311.22;680840;28;4879;-69
2022/02/05 00:01:48;;;;;;;1.10;1.10;;;;;;;6.04;65.03;100318.28;684537;28;138874;-69
2022/02/05 00:02:16;;;;;;;0.90;0.90;;;;;;;6.01;65.01;100324.78;684172;28;136309;-70
2022/02/05 00:02:43;;;;;;;0.90;0.90;;;;;;;5.99;65.08;100324.09;683617;28;161114;-70
2022/02/05 00:03:19;;;;;;;0.90;0.90;;;;;;;5.97;65.08;100317.19;686987;28;136368;-69
2022/02/05 00:03:44;;;;;;;1.00;1.00;;;;;;;5.92;65.43;100317.63;685262;28;158850;-70
2022/02/05 00:04:10;;;;;;;1.00;1.00;;;;;;;5.99;65.77;100339.31;686820;28;115030;-68
2022/02/05 00:04:33;;;;;;;1.10;1.10;;;;;;;6.03;65.86;100312.03;685779;28;138229;-69
2022/02/05 00:04:56;;;;;;;0.90;0.90;;;;;;;6.03;65.87;100320.09;688255;28;67610;-70
2022/02/05 00:05:20;;;;;;;0.90;0.90;;;;;;;6.03;65.84;100338.84;688116;28;69326;-70
2022/02/05 00:05:48;;;;;;;1.02;1.02;;;;;;;5.96;65.47;100335.09;687486;28;92551;-68
2022/02/05 00:06:12;;;;;;;1.20;1.20;;;;;;;5.97;65.49;100333.28;685949;28;138014;-69
2022/02/05 00:06:36;;;;;;;0.93;0.93;;;;;;;5.90;65.52;100327.69;684091;28;89269;-70
2022/02/05 00:06:57;;;;;;;1.00;1.00;;;;;;;5.99;65.70;100323.25;683518;28;115344;-70
2022/02/05 00:07:19;;;;;;;0.90;0.90;;;;;;;5.97;65.36;100326.06;687152;28;21307;-70
2022/02/05 00:07:47;;;;;;;0.85;0.85;;;;;;;5.94;65.61;100335.25;686149;28;46316;-68
2022/02/05 00:08:21;;;;;;;1.25;1.25;;;;;;;5.85;65.36;100317.44;683334;28;139793;-70
2022/02/05 00:08:55;;;;;;;1.05;1.05;;;;;;;5.91;65.58;100329.38;682481;28;135756;-70
2022/02/05 00:09:17;;;;;;;1.02;1.02;;;;;;;5.86;65.93;100339.72;682396;28;160544;-70
2022/02/05 00:09:56;;;;;;;0.82;0.82;;;;;;;5.92;65.73;100333.72;685621;28;67512;-71
2022/02/05 00:11:27;;;;;;;1.00;1.00;;;;;;;5.79;65.89;100326.09;681699;28;137980;-68
2022/02/05 00:12:46;;;;;;;1.00;1.00;;;;;;;5.78;66.47;100330.63;680675;28;158900;-70
2022/02/05 00:13:26;;;;;;;0.90;0.90;;;;;;;5.84;66.65;100344.41;685776;28;138644;-70
2022/02/05 00:14:18;;;;;;;0.80;0.80;;;;;;;5.85;66.67;100338.03;685921;28;135968;-70
2022/02/05 00:15:16;;;;;;;0.90;0.90;;;;;;;5.91;67.02;100343.63;688384;28;61738;-70
2022/02/05 00:15:52;;;;;;;0.93;0.93;;;;;;;5.81;66.49;100324.09;688311;28;59993;-70
2022/02/05 00:38:15;;;;;;;0.77;0.77;;;;;;;5.82;66.92;100370.53;685608;28;137669;-70
2022/02/05 00:38:52;;;;;;;0.88;0.88;;;;;;;5.85;67.31;100388.97;684272;28;135992;-70
2022/02/05 00:39:59;;;;;;;0.70;0.70;;;;;;;5.90;67.08;100400.88;685723;28;136008;-70
2022/02/05 00:40:45;;;;;;;1.00;1.00;;;;;;;5.92;67.05;100400.72;684983;28;161145;-69
2022/02/05 00:41:14;;;;;;;0.95;0.95;;;;;;;5.86;66.69;100391.50;685734;28;135991;-70
2022/02/05 00:41:47;;;;;;;1.10;1.10;;;;;;;5.81;66.67;100399.13;684240;28;157588;-70
2022/02/05 00:42:26;;;;;;;0.75;0.75;;;;;;;5.82;66.83;100410.72;684902;28;158427;-67
2022/02/05 00:42:47;;;;;;;1.10;1.10;;;;;;;5.75;66.64;100381.00;685626;28;136813;-68
2022/02/05 00:43:09;;;;;;;1.00;1.00;;;;;;;5.80;67.02;100389.44;690004;28;22377;-70
2022/02/05 00:43:30;;;;;;;0.90;0.90;;;;;;;5.78;66.80;100399.44;688909;28;44744;-70
2022/02/05 00:43:54;;;;;;;0.90;0.90;;;;;;;5.74;66.95;100398.91;689492;28;22376;-70
2022/02/05 00:44:15;;;;;;;0.80;0.80;;;;;;;5.77;67.17;100390.56;687382;28;90450;-70
2022/02/05 00:44:37;;;;;;;0.90;0.90;;;;;;;5.78;67.29;100397.63;689824;28;23455;-70
2022/02/05 00:45:00;;;;;;;1.00;1.00;;;;;;;5.81;67.24;100407.16;689704;28;23492;-67
2022/02/05 00:45:22;;;;;;;0.90;0.90;;;;;;;5.83;67.18;100404.34;687340;28;92250;-71
2022/02/05 00:45:47;;;;;;;0.90;0.90;;;;;;;5.76;67.07;100385.38;688797;28;43689;-69
2022/02/05 00:46:09;;;;;;;0.80;0.80;;;;;;;5.78;67.05;100392.25;686162;28;113713;-70
2022/02/05 00:46:34;;;;;;;0.70;0.70;;;;;;;5.77;67.37;100389.75;688097;28;45275;-69
2022/02/05 00:46:56;;;;;;;0.98;0.98;;;;;;;5.75;67.01;100395.25;685727;28;116316;-69
2022/02/05 00:47:17;;;;;;;1.00;1.00;;;;;;;5.74;67.20;100392.72;689133;28;45036;-69
2022/02/05 00:47:45;;;;;;;0.90;0.90;;;;;;;5.73;66.93;100402.59;689896;28;23452;-70
2022/02/05 00:48:07;;;;;;;0.80;0.80;;;;;;;5.70;66.97;100404.75;685048;28;159136;-68
2022/02/05 00:48:29;;;;;;;0.70;0.70;;;;;;;5.70;67.22;100400.22;688715;28;46084;-69
2022/02/05 00:48:51;;;;;;;0.88;0.88;;;;;;;5.68;67.30;100398.69;688130;28;67502;-71
2022/02/05 00:49:12;;;;;;;1.08;1.08;;;;;;;5.69;67.30;100408.41;688917;28;46354;-71
2022/02/05 00:49:34;;;;;;;0.93;0.93;;;;;;;5.67;67.35;100395.16;689828;28;22412;-70
2022/02/05 00:49:59;;;;;;;0.90;0.90;;;;;;;5.71;67.45;100409.13;689162;28;45243;-66
2022/02/05 00:50:24;;;;;;;0.70;0.70;;;;;;;5.73;67.51;100388.34;686429;28;113611;-70
2022/02/05 00:50:50;;;;;;;0.70;0.70;;;;;;;5.75;67.49;100402.44;686709;28;113512;-68
2022/02/05 00:51:18;;;;;;;1.20;1.20;;;;;;;5.73;67.34;100413.31;680483;28;137780;-69
2022/02/05 00:51:44;;;;;;;1.00;1.00;;;;;;;5.74;67.38;100400.75;688391;28;139226;-69
2022/02/05 00:52:10;;;;;;;1.00;1.00;;;;;;;5.68;67.48;100393.34;688206;28;138170;-69
2022/02/05 00:52:32;;;;;;;0.82;0.82;;;;;;;5.73;67.47;100396.41;688119;28;138055;-68
2022/02/05 00:53:01;;;;;;;0.77;0.77;;;;;;;5.74;67.45;100406.97;690923;28;45261;-69
2022/02/05 00:53:30;;;;;;;0.80;0.80;;;;;;;5.74;67.51;100406.13;687945;28;136365;-70
2022/02/05 00:54:02;;;;;;;0.90;0.90;;;;;;;5.67;67.51;100383.59;685631;28;138227;-68
2022/02/05 00:54:26;;;;;;;0.88;0.88;;;;;;;5.76;67.32;100410.31;686048;28;136092;-70
2022/02/05 00:54:51;;;;;;;0.80;0.80;;;;;;;5.78;67.17;100412.84;687551;28;90530;-71
2022/02/05 00:55:22;;;;;;;0.80;0.80;;;;;;;5.75;67.27;100405.97;686471;28;115156;-70
2022/02/05 00:55:51;;;;;;;0.90;0.90;;;;;;;5.78;67.29;100410.16;685313;28;158806;-70
2022/02/05 00:56:18;;;;;;;1.00;1.00;;;;;;;5.77;66.73;100416.53;686489;28;137547;-70
2022/02/05 00:57:33;;;;;;;0.82;0.82;;;;;;;5.71;66.80;100417.16;677521;29;137140;-69
2022/02/05 00:57:56;;;;;;;1.05;1.05;;;;;;;5.71;67.16;100417.97;677140;29;137681;-70
2022/02/05 00:58:17;;;;;;;1.00;1.00;;;;;;;5.73;66.99;100420.50;680011;28;68072;-69
2022/02/05 00:58:40;;;;;;;0.95;0.95;;;;;;;5.76;67.00;100418.34;689420;28;22471;-68
2022/02/05 00:59:01;;;;;;;0.93;0.93;;;;;;;5.74;66.96;100417.69;687820;28;69513;-71
2022/02/05 00:59:22;;;;;;;0.90;0.90;;;;;;;5.73;66.88;100412.47;689895;28;21532;-70
2022/02/05 00:59:43;;;;;;;0.73;0.73;;;;;;;5.70;66.94;100412.78;689234;28;22388;-70
2022/02/05 01:00:05;;;;;;;0.90;0.90;;;;;;;5.71;66.97;100414.47;689685;28;22409;-70
2022/02/05 01:00:27;;;;;;;0.90;0.90;;;;;;;5.71;66.99;100420.66;686468;28;22377;-69
2022/02/05 01:00:48;;;;;;;1.00;1.00;;;;;;;5.72;67.08;100425.03;685981;28;46271;-69
2022/02/05 01:01:10;;;;;;;0.90;0.90;;;;;;;5.70;66.89;100427.00;687764;28;844;-69
2022/02/05 01:01:31;;;;;;;0.90;0.90;;;;;;;5.68;66.89;100428.19;684877;28;69389;-69
2022/02/05 01:01:52;;;;;;;0.80;0.80;;;;;;;5.65;66.75;100432.00;686679;28;22441;-70
2022/02/05 01:02:14;;;;;;;0.88;0.88;;;;;;;5.65;66.67;100432.00;687421;28;22411;-69
2022/02/05 01:02:35;;;;;;;0.90;0.90;;;;;;;5.65;66.76;100429.31;688448;28;44931;-69
2022/02/05 01:02:57;;;;;;;0.80;0.80;;;;;;;5.63;66.72;100431.31;689372;28;22424;-70
2022/02/05 01:03:18;;;;;;;0.82;0.82;;;;;;;5.65;67.18;100437.34;688803;28;44358;-70
2022/02/05 01:03:41;;;;;;;0.80;0.80;;;;;;;5.69;67.35;100437.88;689020;28;22378;-70
2022/02/05 01:04:03;;;;;;;0.98;0.98;;;;;;;5.71;67.32;100441.28;687394;28;67508;-70
2022/02/05 01:04:24;;;;;;;1.10;1.10;;;;;;;5.72;67.34;100430.41;690077;28;21662;-69
2022/02/05 01:04:45;;;;;;;1.00;1.00;;;;;;;5.73;67.20;100437.41;689632;28;22347;-70
2022/02/05 01:05:07;;;;;;;0.90;0.90;;;;;;;5.74;67.12;100439.13;689792;28;23491;-69
2022/02/05 01:05:29;;;;;;;0.82;0.82;;;;;;;5.68;67.29;100439.72;688806;28;44388;-69
2022/02/05 01:05:50;;;;;;;0.90;0.90;;;;;;;5.71;67.23;100447.47;688027;28;69601;-70
2022/02/05 01:06:11;;;;;;;0.70;0.70;;;;;;;5.69;66.94;100443.22;690054;28;22340;-69
2022/02/05 01:06:33;;;;;;;0.95;0.95;;;;;;;5.69;67.18;100448.59;685495;28;43373;-70
2022/02/05 01:06:54;;;;;;;0.90;0.90;;;;;;;5.67;67.38;100443.38;686823;28;23407;-69
2022/02/05 01:07:16;;;;;;;0.90;0.90;;;;;;;5.67;67.17;100443.38;687300;28;22432;-69
2022/02/05 01:07:38;;;;;;;0.80;0.80;;;;;;;5.64;67.22;100449.06;685814;28;46177;-70
2022/02/05 01:07:59;;;;;;;0.82;0.82;;;;;;;5.65;67.18;100445.38;686064;28;44384;-70
2022/02/05 01:08:20;;;;;;;0.70;0.70;;;;;;;5.62;67.35;100443.00;687377;28;22477;-68
2022/02/05 01:08:43;;;;;;;0.90;0.90;;;;;;;5.67;67.60;100455.94;687305;28;22389;-70
2022/02/05 01:09:07;;;;;;;1.00;1.00;;;;;;;5.68;67.53;100457.66;683787;28;92170;-70
2022/02/05 01:09:28;;;;;;;1.00;1.00;;;;;;;5.70;67.47;100448.44;684887;28;92805;-70
2022/02/05 01:09:49;;;;;;;0.90;0.90;;;;;;;5.67;67.37;100453.28;687150;28;24104;-68
2022/02/05 01:10:11;;;;;;;0.73;0.73;;;;;;;5.72;67.40;100459.00;687478;28;20865;-70
2022/02/05 01:10:33;;;;;;;0.70;0.70;;;;;;;5.71;67.26;100460.03;686524;28;46481;-70
2022/02/05 01:10:54;;;;;;;0.90;0.90;;;;;;;5.67;67.21;100462.16;687089;28;21384;-69
2022/02/05 01:11:15;;;;;;;0.93;0.93;;;;;;;5.69;67.17;100460.19;686801;28;22426;-70
2022/02/05 01:11:36;;;;;;;0.93;0.93;;;;;;;5.67;67.20;100451.41;690068;28;21303;-68
2022/02/05 01:12:00;;;;;;;0.90;0.90;;;;;;;5.69;67.46;100462.00;689949;28;23482;-69
2022/02/05 01:12:25;;;;;;;0.90;0.90;;;;;;;5.70;67.15;100455.66;686675;28;114980;-70
2022/02/05 01:12:51;;;;;;;0.77;0.77;;;;;;;5.69;67.25;100449.47;686477;28;113624;-70
2022/02/05 01:13:14;;;;;;;1.00;1.00;;;;;;;5.66;67.43;100451.56;685663;28;138248;-70
2022/02/05 01:13:36;;;;;;;1.00;1.00;;;;;;;5.71;67.47;100466.22;688169;28;67519;-70
2022/02/05 01:13:58;;;;;;;1.00;1.00;;;;;;;5.71;67.38;100454.66;688845;28;46365;-69
2022/02/05 01:14:25;;;;;;;0.90;0.90;;;;;;;5.67;67.14;100450.59;688425;28;66743;-70
2022/02/05 01:14:51;;;;;;;0.88;0.88;;;;;;;5.69;67.33;100456.63;685979;28;138176;-68
2022/02/05 01:15:13;;;;;;;0.70;0.70;;;;;;;5.66;67.37;100455.13;686079;28;137788;-69
2022/02/05 01:15:39;;;;;;;1.10;1.10;;;;;;;5.66;67.17;100464.97;689007;28;46847;-70
2022/02/05 01:16:08;;;;;;;1.00;1.00;;;;;;;5.71;67.42;100447.47;685773;28;138204;-70
2022/02/05 01:16:41;;;;;;;0.80;0.80;;;;;;;5.69;67.46;100456.63;684926;28;136277;-70
2022/02/05 01:17:06;;;;;;;0.77;0.77;;;;;;;5.74;67.48;100455.19;685662;28;137472;-70
2022/02/05 01:17:32;;;;;;;0.88;0.88;;;;;;;5.76;67.31;100458.56;685776;28;138020;-69
2022/02/05 01:17:59;;;;;;;1.10;1.10;;;;;;;5.75;67.20;100469.44;685680;28;136591;-70
2022/02/05 01:18:22;;;;;;;1.00;1.00;;;;;;;5.74;67.41;100465.91;685925;28;136430;-69
2022/02/05 01:18:45;;;;;;;0.90;0.90;;;;;;;5.74;67.36;100462.41;688351;28;69448;-70
2022/02/05 01:19:08;;;;;;;0.82;0.82;;;;;;;5.74;67.07;100468.59;688542;28;46402;-68
2022/02/05 01:19:55;;;;;;;1.00;1.00;;;;;;;5.67;67.24;100454.09;687820;28;69405;-69
2022/02/05 01:21:07;;;;;;;0.77;0.77;;;;;;;5.73;67.28;100464.22;674520;29;136662;-68
2022/02/05 01:21:37;;;;;;;0.50;0.50;;;;;;;5.72;66.88;100462.56;651632;29;65898;-68
2022/02/05 01:22:00;;;;;;;0.80;0.80;;;;;;;5.72;66.90;100467.03;683908;28;136044;-70
2022/02/05 01:22:21;;;;;;;1.05;1.05;;;;;;;5.67;66.99;100459.47;686070;28;90754;-69
2022/02/05 01:22:44;;;;;;;0.90;0.90;;;;;;;5.67;66.95;100472.84;688970;28;22291;-70
2022/02/05 01:23:10;;;;;;;0.88;0.88;;;;;;;5.71;67.08;100476.09;689601;28;69740;-70
2022/02/05 01:23:38;;;;;;;0.80;0.80;;;;;;;5.70;67.25;100469.88;686910;28;115185;-70
2022/02/05 01:24:03;;;;;;;0.70;0.70;;;;;;;5.72;67.36;100481.31;685381;28;135810;-70
2022/02/05 01:24:25;;;;;;;0.95;0.95;;;;;;;5.73;67.42;100474.94;686702;28;113614;-70
2022/02/05 01:24:49;;;;;;;1.00;1.00;;;;;;;5.73;67.09;100466.06;689112;28;46413;-69
2022/02/05 01:25:11;;;;;;;0.90;0.90;;;;;;;5.76;67.31;100484.53;687592;28;92258;-67
2022/02/05 01:25:38;;;;;;;0.80;0.80;;;;;;;5.73;67.32;100466.91;687327;28;69083;-69
2022/02/05 01:26:08;;;;;;;0.80;0.80;;;;;;;5.76;67.18;100480.00;685141;28;138496;-69
2022/02/05 01:26:34;;;;;;;0.95;0.95;;;;;;;5.75;67.36;100470.28;684544;28;138627;-70
2022/02/05 01:27:02;;;;;;;1.10;1.10;;;;;;;5.76;67.32;100485.34;685142;28;138135;-70
2022/02/05 01:27:35;;;;;;;0.90;0.90;;;;;;;5.77;67.20;100486.22;685938;28;135791;-69
2022/02/05 01:28:01;;;;;;;0.80;0.80;;;;;;;5.77;67.22;100486.22;685212;28;135769;-68
2022/02/05 01:28:29;;;;;;;0.70;0.70;;;;;;;5.78;67.40;100490.56;686036;28;138137;-70
2022/02/05 01:28:55;;;;;;;1.00;1.00;;;;;;;5.79;67.35;100489.56;685712;28;138843;-67
2022/02/05 01:29:26;;;;;;;1.10;1.10;;;;;;;5.77;66.85;100487.03;685532;28;138180;-69
2022/02/05 01:30:03;;;;;;;0.80;0.80;;;;;;;5.76;66.75;100496.06;685702;28;136178;-70
2022/02/05 01:30:27;;;;;;;0.65;0.65;;;;;;;5.79;66.87;100481.53;685750;28;136008;-70
2022/02/05 01:30:52;;;;;;;0.80;0.80;;;;;;;5.70;66.93;100467.19;686588;28;115199;-69
2022/02/05 01:31:14;;;;;;;1.10;1.10;;;;;;;5.77;67.04;100489.72;686364;28;90422;-70
2022/02/05 01:31:43;;;;;;;1.00;1.00;;;;;;;5.75;67.01;100475.66;688817;28;46347;-69
2022/02/05 01:32:09;;;;;;;0.85;0.85;;;;;;;5.74;66.96;100487.34;685300;28;137928;-70
2022/02/05 01:32:33;;;;;;;0.82;0.82;;;;;;;5.74;66.99;100473.13;686000;28;137732;-70
2022/02/05 01:33:06;;;;;;;0.68;0.68;;;;;;;5.76;66.94;100490.72;686987;28;92303;-70
2022/02/05 01:33:43;;;;;;;0.95;0.95;;;;;;;5.72;66.89;100489.34;685659;28;137312;-69
2022/02/05 01:34:13;;;;;;;0.80;0.80;;;;;;;5.72;66.76;100492.03;685350;28;137271;-70
2022/02/05 01:34:41;;;;;;;0.90;0.90;;;;;;;5.76;66.91;100484.53;685645;28;136212;-69
2022/02/05 01:35:09;;;;;;;0.80;0.80;;;;;;;5.76;67.01;100489.88;685889;28;138833;-70
2022/02/05 01:35:38;;;;;;;1.10;1.10;;;;;;;5.75;66.85;100489.03;685651;28;136104;-69
2022/02/05 01:36:17;;;;;;;1.02;1.02;;;;;;;5.75;66.94;100489.03;685093;28;137956;-70
2022/02/05 01:48:55;;;;;;;1.00;1.00;;;;;;;5.75;66.08;100496.22;682375;28;137563;-69
2022/02/05 01:49:45;;;;;;;1.00;1.00;;;;;;;5.76;66.47;100501.44;685267;28;136016;-70
2022/02/05 01:50:24;;;;;;;0.70;0.70;;;;;;;5.74;66.35;100495.38;685537;28;137393;-69
2022/02/05 01:51:06;;;;;;;1.00;1.00;;;;;;;5.80;66.56;100503.81;685492;28;137693;-69
2022/02/05 01:51:45;;;;;;;1.00;1.00;;;;;;;5.82;66.40;100504.53;687702;28;60399;-70
2022/02/05 01:52:13;;;;;;;0.70;0.70;;;;;;;5.87;66.29;100515.63;684319;28;158901;-68
2022/02/05 01:52:49;;;;;;;0.88;0.88;;;;;;;5.87;66.41;100512.94;685639;28;136310;-70
2022/02/05 01:53:28;;;;;;;0.90;0.90;;;;;;;5.83;66.00;100506.19;685700;28;137687;-69
2022/02/05 01:54:13;;;;;;;1.10;1.10;;;;;;;5.80;66.06;100509.16;684938;28;160653;-67
2022/02/05 01:54:43;;;;;;;0.70;0.70;;;;;;;5.81;65.77;100511.69;684532;28;160435;-70
2022/02/05 01:55:13;;;;;;;1.00;1.00;;;;;;;5.78;65.82;100506.63;685583;28;136662;-69
2022/02/05 01:55:52;;;;;;;1.10;1.10;;;;;;;5.77;65.84;100502.28;685883;28;137795;-68
2022/02/05 01:56:27;;;;;;;0.90;0.90;;;;;;;5.76;66.03;100520.19;685000;28;137476;-66
2022/02/05 01:56:53;;;;;;;0.70;0.70;;;;;;;5.78;66.14;100520.03;685314;28;137550;-69
2022/02/05 01:57:21;;;;;;;1.00;1.00;;;;;;;5.77;66.20;100513.84;685404;28;138157;-70
2022/02/05 01:57:55;;;;;;;1.00;1.00;;;;;;;5.77;66.09;100504.97;685418;28;137823;-68
2022/02/05 01:58:22;;;;;;;0.75;0.75;;;;;;;5.73;65.65;100500.91;685800;28;136088;-69
2022/02/05 01:58:57;;;;;;;0.80;0.80;;;;;;;5.67;65.78;100510.38;685090;28;138036;-69
2022/02/05 01:59:29;;;;;;;1.15;1.15;;;;;;;5.69;66.07;100521.81;685390;28;135764;-70
2022/02/05 02:04:45;;;;;;;0.80;0.80;;;;;;;5.71;66.14;100502.91;685356;28;136053;-70
2022/02/05 02:04:51;;;;;;;0.70;0.70;;;;;;;5.70;65.84;100538.72;682584;28;138388;-70
2022/02/05 02:05:12;;;;;;;0.90;0.90;;;;;;;5.72;66.04;100510.78;683100;28;137688;-68
2022/02/05 02:05:36;;;;;;;0.90;0.90;;;;;;;5.72;65.92;100536.72;689016;28;22489;-70
2022/02/05 02:06:13;;;;;;;0.90;0.90;;;;;;;5.70;65.86;100520.78;686015;28;115166;-68
2022/02/05 02:06:58;;;;;;;0.77;0.77;;;;;;;5.72;66.04;100509.91;684038;28;157359;-69
2022/02/05 02:09:53;;;;;;;0.90;0.90;;;;;;;5.72;66.44;100524.19;678628;28;137593;-68
2022/02/05 02:11:12;;;;;;;0.90;0.90;;;;;;;5.79;66.24;100513.69;683314;28;137730;-67
2022/02/05 02:11:39;;;;;;;0.95;0.95;;;;;;;5.82;66.17;100513.38;685300;28;118755;-69
2022/02/05 02:12:04;;;;;;;1.00;1.00;;;;;;;5.82;66.23;100512.56;682927;28;137958;-69
2022/02/05 02:12:37;;;;;;;0.90;0.90;;;;;;;5.82;65.96;100523.28;683575;28;113966;-69
2022/02/05 02:13:37;;;;;;;0.75;0.75;;;;;;;5.83;66.20;100523.13;682907;28;137145;-70
2022/02/05 02:14:18;;;;;;;1.20;1.20;;;;;;;5.83;66.01;100522.25;682342;28;134699;-69
2022/02/05 02:14:48;;;;;;;0.80;0.80;;;;;;;5.82;66.01;100529.47;685245;28;137668;-70
2022/02/05 02:15:16;;;;;;;0.80;0.80;;;;;;;5.82;65.85;100517.91;685496;28;135308;-70
2022/02/05 02:15:43;;;;;;;0.90;0.90;;;;;;;5.82;65.71;100542.03;685005;28;136320;-69
2022/02/05 02:16:18;;;;;;;1.08;1.08;;;;;;;5.85;65.66;100523.81;685612;28;137403;-69
2022/02/05 02:17:04;;;;;;;1.10;1.10;;;;;;;5.85;65.75;100521.13;683886;28;157398;-69
2022/02/05 02:18:23;;;;;;;0.90;0.90;;;;;;;5.83;65.92;100522.25;685538;28;135983;-69
2022/02/05 02:18:56;;;;;;;1.00;1.00;;;;;;;5.89;66.09;100529.69;685781;28;137050;-69
2022/02/05 02:19:27;;;;;;;1.05;1.05;;;;;;;5.89;65.90;100522.53;685297;28;137712;-70
2022/02/05 02:20:03;;;;;;;0.90;0.90;;;;;;;5.89;65.71;100522.53;685015;28;161426;-69
2022/02/05 02:20:44;;;;;;;0.98;0.98;;;;;;;5.90;65.64;100516.16;685481;28;135818;-67
2022/02/05 02:21:17;;;;;;;0.80;0.80;;;;;;;5.86;65.46;100525.50;685546;28;136109;-68
2022/02/05 02:21:47;;;;;;;0.93;0.93;;;;;;;5.85;65.31;100525.66;684165;28;156253;-70
2022/02/05 02:22:14;;;;;;;1.00;1.00;;;;;;;5.82;65.35;100531.31;685307;28;137984;-69
2022/02/05 02:22:43;;;;;;;1.20;1.20;;;;;;;5.78;65.62;100528.94;685459;28;137789;-69
2022/02/05 02:23:20;;;;;;;1.15;1.15;;;;;;;5.76;65.55;100524.72;684950;28;137383;-70
2022/02/05 02:23:53;;;;;;;0.93;0.93;;;;;;;5.74;65.37;100530.22;685239;28;138572;-70
2022/02/05 02:24:21;;;;;;;0.90;0.90;;;;;;;5.74;65.62;100535.59;685246;28;137426;-68
2022/02/05 02:24:56;;;;;;;1.00;1.00;;;;;;;5.76;65.58;100533.59;685466;28;132331;-69
2022/02/05 02:25:30;;;;;;;0.82;0.82;;;;;;;5.75;65.82;100539.09;685397;28;137669;-69
2022/02/05 02:26:00;;;;;;;0.90;0.90;;;;;;;5.77;65.71;100529.09;685401;28;135971;-69
2022/02/05 02:26:33;;;;;;;0.70;0.70;;;;;;;5.79;65.77;100545.84;683580;28;162050;-70
2022/02/05 02:27:06;;;;;;;1.10;1.10;;;;;;;5.84;65.69;100534.69;685598;28;138143;-70
2022/02/05 02:27:36;;;;;;;0.90;0.90;;;;;;;5.82;65.35;100537.50;685615;28;137303;-70
2022/02/05 02:28:04;;;;;;;0.95;0.95;;;;;;;5.78;65.29;100541.47;685305;28;137914;-70
2022/02/05 02:28:35;;;;;;;0.70;0.70;;;;;;;5.77;65.58;100543.31;686697;28;137783;-70
2022/02/05 02:29:03;;;;;;;1.00;1.00;;;;;;;5.73;65.47;100538.41;686859;28;136168;-68
2022/02/05 02:29:33;;;;;;;1.13;1.13;;;;;;;5.73;65.44;100538.41;686939;28;138117;-70
2022/02/05 02:30:03;;;;;;;0.80;0.80;;;;;;;5.71;65.38;100538.56;686992;28;138516;-68
2022/02/05 02:30:28;;;;;;;0.70;0.70;;;;;;;5.71;65.32;100535.88;685376;28;138631;-70
2022/02/05 02:30:55;;;;;;;0.80;0.80;;;;;;;5.66;65.01;100527.47;685412;28;136345;-69
2022/02/05 02:31:21;;;;;;;1.00;1.00;;;;;;;5.71;65.26;100543.09;684860;28;138025;-69
2022/02/05 02:31:47;;;;;;;0.90;0.90;;;;;;;5.69;65.26;100539.69;686451;28;114643;-70
2022/02/05 02:32:09;;;;;;;0.85;0.85;;;;;;;5.73;65.34;100549.13;684911;28;159657;-70
2022/02/05 02:32:31;;;;;;;0.70;0.70;;;;;;;5.75;65.74;100547.13;688350;28;44444;-70
2022/02/05 02:33:01;;;;;;;0.80;0.80;;;;;;;5.76;65.47;100540.78;687710;28;67909;-69
2022/02/05 02:33:29;;;;;;;1.10;1.10;;;;;;;5.74;65.27;100549.00;685505;28;137970;-70
2022/02/05 02:33:54;;;;;;;0.90;0.90;;;;;;;5.75;65.21;100553.38;685622;28;138118;-68
2022/02/05 02:34:21;;;;;;;1.00;1.00;;;;;;;5.73;65.23;100544.59;686650;28;115046;-69
2022/02/05 02:34:47;;;;;;;1.00;1.00;;;;;;;5.73;65.33;100549.97;685184;28;137812;-69
2022/02/05 02:35:13;;;;;;;0.80;0.80;;;;;;;5.71;65.08;100549.28;685735;28;137668;-69
2022/02/05 02:35:38;;;;;;;0.98;0.98;;;;;;;5.73;65.25;100559.84;686127;28;115022;-70
2022/02/05 02:36:01;;;;;;;1.10;1.10;;;;;;;5.74;65.16;100559.72;688265;28;60138;-70
2022/02/05 02:36:32;;;;;;;1.00;1.00;;;;;;;5.72;65.05;100556.34;686927;28;67288;-69
2022/02/05 02:36:58;;;;;;;1.00;1.00;;;;;;;5.72;65.19;100556.34;684125;28;137880;-69
2022/02/05 02:37:24;;;;;;;0.70;0.70;;;;;;;5.70;64.75;100555.63;684288;28;138158;-69
2022/02/05 02:37:52;;;;;;;1.10;1.10;;;;;;;5.63;64.95;100549.19;684059;28;138156;-70
2022/02/05 02:38:16;;;;;;;1.00;1.00;;;;;;;5.65;64.59;100555.25;684151;28;137914;-69
2022/02/05 02:38:45;;;;;;;1.00;1.00;;;;;;;5.62;64.84;100549.34;685077;28;114697;-70
2022/02/05 02:39:11;;;;;;;0.90;0.90;;;;;;;5.64;64.74;100556.22;684775;28;137757;-69
2022/02/05 02:39:44;;;;;;;0.93;0.93;;;;;;;5.66;65.25;100564.97;685352;28;138127;-70
2022/02/05 02:40:13;;;;;;;0.90;0.90;;;;;;;5.64;64.78;100552.72;684432;28;160396;-70
2022/02/05 02:40:42;;;;;;;0.90;0.90;;;;;;;5.63;65.04;100554.56;685592;28;137592;-70
2022/02/05 02:41:07;;;;;;;0.90;0.90;;;;;;;5.59;65.27;100554.03;685572;28;138407;-69
2022/02/05 02:41:33;;;;;;;0.80;0.80;;;;;;;5.63;64.93;100565.28;685620;28;113546;-70
2022/02/05 02:41:59;;;;;;;0.90;0.90;;;;;;;5.62;65.29;100558.22;685030;28;160917;-70
2022/02/05 02:42:22;;;;;;;1.00;1.00;;;;;;;5.62;65.03;100562.75;685862;28;137826;-70
2022/02/05 02:42:44;;;;;;;1.40;1.40;;;;;;;5.63;65.03;100557.22;688103;28;69468;-70
2022/02/05 02:43:11;;;;;;;1.10;1.10;;;;;;;5.62;65.14;100560.06;688513;28;44403;-69
2022/02/05 02:43:34;;;;;;;1.10;1.10;;;;;;;5.62;64.85;100568.94;685911;28;138095;-70
2022/02/05 02:43:56;;;;;;;1.17;1.17;;;;;;;5.60;64.88;100558.38;687795;28;67514;-69
2022/02/05 02:44:17;;;;;;;1.80;1.80;;;;;;;5.62;64.88;100560.91;688773;28;46444;-69
2022/02/05 02:44:38;;;;;;;3.60;3.50;;;;;;;5.64;64.88;100566.09;688893;28;24378;-70
2022/02/05 02:44:59;;;;;;;3.63;3.53;;;;;;;5.62;64.88;100568.09;689405;28;23573;-69
2022/02/05 02:45:22;;;;;;;3.70;3.60;;;;;;;5.61;64.57;100567.25;690321;28;992;-70
2022/02/05 02:45:45;;;;;;;2.25;2.25;;;;;;;5.54;64.63;100555.44;688646;28;46645;-69
2022/02/05 02:46:07;;;;;;;2.00;2.00;;;;;;;5.58;64.79;100559.53;687668;28;69295;-70
2022/02/05 02:46:28;;;;;;;1.92;1.92;;;;;;;5.59;64.67;100569.22;687460;28;47248;-69
2022/02/05 02:46:50;;;;;;;3.13;3.10;;;;;;;5.58;64.67;100563.03;689590;28;21486;-67
2022/02/05 02:47:11;;;;;;;23.85;22.90;;;;;;;5.58;64.82;100568.41;688629;28;44130;-69
2022/02/05 02:47:33;;;;;;;56.33;53.70;;;;;;;5.59;64.84;100571.91;688358;28;45228;-69
2022/02/05 02:47:54;;;;;;;59.60;56.80;;;;;;;5.61;64.74;100572.59;689319;28;23477;-70
2022/02/05 02:48:15;;;;;;;48.40;46.25;;;;;;;5.60;64.70;100573.59;689770;28;22372;-70
2022/02/05 02:48:42;;;;;;;52.42;50.05;;;;;;;5.58;64.88;100572.94;689508;28;22154;-70
2022/02/05 02:49:04;;;;;;;69.05;65.80;;;;;;;5.62;64.76;100582.34;685117;28;137882;-69
2022/02/05 02:49:39;;;;;;;61.70;58.80;;;;;;;5.63;64.62;100575.13;688705;28;45066;-70
2022/02/05 02:50:06;;;;;;;29.57;28.37;;;;;;;5.67;64.84;100550.56;685599;28;135892;-70
2022/02/05 02:50:33;;;;;;;42.40;40.53;;;;;;;5.69;64.36;100572.72;685449;28;137900;-70
2022/02/05 02:56:32;;;;;;;56.17;53.63;;;;;;;5.72;64.55;100572.41;684119;28;137684;-70
2022/02/05 02:57:00;;;;;;;92.70;88.30;;;;;;;5.74;64.45;100585.66;682693;28;137200;-68
2022/02/05 02:57:23;;;;;;;83.57;79.65;;;;;;;5.75;64.58;100577.47;682550;28;138023;-68
2022/02/05 02:57:50;;;;;;;73.22;69.75;;;;;;;5.73;64.28;100584.81;682033;28;67331;-66
2022/02/05 02:58:17;;;;;;;63.03;60.08;;;;;;;5.75;64.32;100581.97;681255;28;138114;-67
2022/02/05 02:58:40;;;;;;;81.00;77.20;;;;;;;5.74;63.96;100580.31;682498;28;137926;-70
2022/02/05 02:59:07;;;;;;;76.18;72.57;;;;;;;5.72;64.16;100583.13;686398;28;67609;-68
2022/02/05 02:59:35;;;;;;;60.90;58.05;;;;;;;5.73;64.09;100587.47;684305;28;138861;-70
2022/02/05 03:00:00;;;;;;;65.85;62.78;;;;;;;5.73;64.14;100576.75;685300;28;137554;-70
2022/02/05 03:00:21;;;;;;;89.30;85.03;;;;;;;5.73;64.14;100589.34;686360;28;116045;-68
2022/02/05 03:00:43;;;;;;;76.85;73.18;;;;;;;5.74;64.02;100591.88;689224;28;22404;-68
2022/02/05 03:01:04;;;;;;;69.75;66.45;;;;;;;5.74;64.13;100583.81;688707;28;46432;-70
2022/02/05 03:01:28;;;;;;;63.38;60.42;;;;;;;5.68;64.11;100581.75;688786;28;22329;-68